Time;durP1;ratioP1;P1;durP2;ratioP2;P2;SDS_P1;SDS_P2;PMS_P1;PMS_P2;Temp;Humidity;BMP_temperature;BMP_pressure;BME280_temperature;BME280_humidity;BME280_pressure;Samples;Min_cycle;Max_cycle;Signal;HPM_P1;HPM_P2
2022/04/20 00:02:23;;;;;;;0.60;0.60;;;;;;;;;;5068078;28;20218;-62
2022/04/20 00:04:53;;;;;;;0.77;0.77;;;;;;;;;;5062519;28;20205;-64
2022/04/20 00:07:21;;;;;;;1.07;0.83;;;;;;;;;;5066051;28;20556;-63
2022/04/20 00:09:48;;;;;;;1.53;0.83;;;;;;;;;;5065699;28;20734;-63
2022/04/20 00:12:15;;;;;;;1.60;0.80;;;;;;;;;;5073491;28;20572;-63
2022/04/20 00:14:42;;;;;;;0.83;0.70;;;;;;;;;;5064845;28;20287;-63
2022/04/20 00:17:09;;;;;;;1.00;0.70;;;;;;;;;;5042368;28;20247;-63
2022/04/20 00:19:36;;;;;;;0.73;0.73;;;;;;;;;;5069302;28;20637;-63
2022/04/20 00:22:04;;;;;;;1.20;0.80;;;;;;;;;;5072089;28;20237;-62
2022/04/20 00:24:31;;;;;;;3.33;0.60;;;;;;;;;;5069467;28;20764;-63
2022/04/20 00:26:58;;;;;;;0.80;0.80;;;;;;;;;;5071045;28;20845;-63
2022/04/20 00:29:25;;;;;;;0.80;0.80;;;;;;;;;;5066911;28;20410;-63
2022/04/20 00:31:52;;;;;;;0.80;0.80;;;;;;;;;;5070010;28;20929;-63
2022/04/20 00:34:19;;;;;;;1.00;0.70;;;;;;;;;;5067048;28;20214;-63
2022/04/20 00:36:50;;;;;;;0.77;0.70;;;;;;;;;;5068133;28;20204;-63
2022/04/20 00:39:17;;;;;;;0.53;0.53;;;;;;;;;;5067019;28;20188;-63
2022/04/20 00:41:44;;;;;;;1.53;0.83;;;;;;;;;;5060052;28;20222;-63
2022/04/20 00:44:12;;;;;;;1.70;0.80;;;;;;;;;;5068540;28;20200;-63
2022/04/20 00:46:40;;;;;;;0.80;0.77;;;;;;;;;;5066763;28;20271;-63
2022/04/20 00:49:08;;;;;;;0.77;0.70;;;;;;;;;;5065643;28;20204;-62
2022/04/20 00:51:35;;;;;;;1.63;0.90;;;;;;;;;;5068121;28;20703;-63
2022/04/20 00:54:02;;;;;;;1.07;0.77;;;;;;;;;;5069122;28;20247;-63
2022/04/20 00:56:29;;;;;;;1.07;0.97;;;;;;;;;;5068513;28;20340;-63
2022/04/20 00:58:58;;;;;;;1.00;0.83;;;;;;;;;;5068930;28;20206;-62
2022/04/20 01:01:26;;;;;;;0.70;0.70;;;;;;;;;;5065356;28;20213;-63
2022/04/20 01:03:54;;;;;;;1.43;0.80;;;;;;;;;;5071103;28;20182;-62
2022/04/20 01:06:21;;;;;;;1.00;0.70;;;;;;;;;;5068088;28;20259;-63
2022/04/20 01:08:48;;;;;;;1.13;0.70;;;;;;;;;;5054344;28;20276;-63
2022/04/20 01:11:16;;;;;;;0.97;0.90;;;;;;;;;;5062259;28;20278;-62
2022/04/20 01:13:43;;;;;;;0.70;0.70;;;;;;;;;;5068395;28;20189;-63
2022/04/20 01:16:10;;;;;;;1.00;0.90;;;;;;;;;;5067875;28;20208;-62
2022/04/20 01:18:44;;;;;;;1.00;0.77;;;;;;;;;;5078262;28;20205;-62
2022/04/20 01:21:11;;;;;;;0.60;0.60;;;;;;;;;;5062450;28;20233;-63
2022/04/20 01:23:38;;;;;;;0.70;0.70;;;;;;;;;;5069182;28;20233;-63
2022/04/20 01:26:07;;;;;;;2.37;0.80;;;;;;;;;;5060268;28;20213;-64
2022/04/20 01:28:35;;;;;;;0.70;0.70;;;;;;;;;;5069597;28;20251;-63
2022/04/20 01:31:02;;;;;;;1.00;0.70;;;;;;;;;;5065201;28;20194;-62
2022/04/20 01:33:29;;;;;;;0.90;0.70;;;;;;;;;;5074293;28;20221;-64
2022/04/20 01:35:57;;;;;;;0.67;0.67;;;;;;;;;;5050746;28;20688;-63
2022/04/20 01:38:24;;;;;;;1.00;0.90;;;;;;;;;;5067852;28;20429;-63
2022/04/20 01:40:51;;;;;;;1.10;0.73;;;;;;;;;;5067707;28;20221;-63
2022/04/20 01:43:18;;;;;;;0.80;0.80;;;;;;;;;;5065309;28;20279;-64
2022/04/20 01:45:45;;;;;;;1.33;1.00;;;;;;;;;;5065547;28;20360;-63
2022/04/20 01:48:13;;;;;;;1.40;0.80;;;;;;;;;;5068046;28;20200;-64
2022/04/20 01:51:46;;;;;;;0.70;0.70;;;;;;;;;;5049340;28;20258;-63
2022/04/20 01:53:27;;;;;;;1.33;1.00;;;;;;;;;;5066857;28;20826;-63
2022/04/20 01:55:54;;;;;;;0.90;0.73;;;;;;;;;;5067594;28;20236;-63
2022/04/20 01:58:21;;;;;;;0.83;0.70;;;;;;;;;;5072523;28;20243;-65
2022/04/20 02:00:49;;;;;;;0.97;0.80;;;;;;;;;;5039476;28;20654;-62
2022/04/20 02:03:16;;;;;;;0.63;0.60;;;;;;;;;;5070001;28;20204;-62
2022/04/20 02:05:43;;;;;;;1.17;0.80;;;;;;;;;;5066542;28;20243;-64
2022/04/20 02:08:10;;;;;;;2.13;0.80;;;;;;;;;;5066976;28;20205;-63
2022/04/20 02:10:37;;;;;;;2.20;0.80;;;;;;;;;;5064631;28;20318;-62
2022/04/20 02:13:05;;;;;;;0.60;0.60;;;;;;;;;;5063355;28;20185;-62
2022/04/20 02:15:32;;;;;;;0.70;0.70;;;;;;;;;;5065670;28;20202;-63
2022/04/20 02:17:59;;;;;;;1.37;1.00;;;;;;;;;;5062875;28;20198;-63
2022/04/20 02:20:27;;;;;;;0.80;0.80;;;;;;;;;;5067036;28;20220;-63
2022/04/20 02:22:54;;;;;;;1.07;1.00;;;;;;;;;;5064337;28;20194;-63
2022/04/20 02:25:21;;;;;;;1.13;0.80;;;;;;;;;;5063483;28;20646;-63
2022/04/20 02:27:48;;;;;;;1.00;0.80;;;;;;;;;;5067037;28;20583;-63
2022/04/20 02:30:15;;;;;;;0.93;0.60;;;;;;;;;;5059341;28;20201;-63
2022/04/20 02:32:42;;;;;;;1.43;0.97;;;;;;;;;;5072360;28;20215;-63
2022/04/20 02:35:09;;;;;;;0.70;0.70;;;;;;;;;;5046155;28;20694;-63
2022/04/20 02:37:37;;;;;;;1.17;0.60;;;;;;;;;;5066444;28;20259;-66
2022/04/20 02:40:04;;;;;;;0.80;0.80;;;;;;;;;;5077661;28;20202;-64
2022/04/20 02:42:31;;;;;;;0.60;0.60;;;;;;;;;;5066561;28;20476;-63
2022/04/20 02:44:58;;;;;;;2.07;1.10;;;;;;;;;;5073513;28;20205;-63
2022/04/20 02:47:25;;;;;;;0.80;0.80;;;;;;;;;;5060598;28;20206;-63
2022/04/20 02:49:52;;;;;;;1.40;0.90;;;;;;;;;;5067600;28;20679;-63
2022/04/20 02:52:19;;;;;;;0.87;0.80;;;;;;;;;;5066412;28;20218;-64
2022/04/20 02:54:46;;;;;;;1.07;0.93;;;;;;;;;;5066918;28;20193;-63
2022/04/20 02:57:14;;;;;;;0.90;0.90;;;;;;;;;;5058614;28;20194;-63
2022/04/20 02:59:41;;;;;;;0.80;0.60;;;;;;;;;;5070499;28;20206;-65
2022/04/20 03:02:08;;;;;;;0.90;0.83;;;;;;;;;;5065493;28;20225;-63
2022/04/20 03:04:35;;;;;;;1.07;0.90;;;;;;;;;;5065744;28;20186;-63
2022/04/20 03:07:02;;;;;;;1.13;0.90;;;;;;;;;;5063257;28;20282;-63
2022/04/20 03:09:29;;;;;;;0.77;0.77;;;;;;;;;;5062859;28;20295;-65
2022/04/20 03:11:56;;;;;;;1.30;0.87;;;;;;;;;;5065925;28;20201;-63
2022/04/20 03:14:23;;;;;;;1.47;1.00;;;;;;;;;;5066025;28;20226;-62
2022/04/20 03:16:51;;;;;;;1.33;0.90;;;;;;;;;;5064758;28;20254;-63
2022/04/20 03:19:18;;;;;;;0.70;0.70;;;;;;;;;;5063977;28;20205;-63
2022/04/20 03:21:45;;;;;;;0.77;0.77;;;;;;;;;;5063879;28;20296;-62
2022/04/20 03:24:12;;;;;;;0.80;0.80;;;;;;;;;;5073139;28;20201;-64
2022/04/20 03:26:39;;;;;;;1.07;0.97;;;;;;;;;;5064908;28;20255;-63
2022/04/20 03:29:06;;;;;;;0.87;0.80;;;;;;;;;;5065498;28;20681;-63
2022/04/20 03:31:34;;;;;;;1.10;1.00;;;;;;;;;;5065012;28;20558;-64
2022/04/20 03:34:02;;;;;;;1.07;1.07;;;;;;;;;;5062484;28;20216;-63
2022/04/20 03:36:30;;;;;;;0.80;0.80;;;;;;;;;;5065932;28;20266;-62
2022/04/20 03:38:57;;;;;;;1.00;0.77;;;;;;;;;;5065806;28;20201;-63
2022/04/20 03:41:24;;;;;;;0.90;0.90;;;;;;;;;;5061828;28;20290;-63
2022/04/20 03:43:51;;;;;;;1.00;0.90;;;;;;;;;;5065595;28;20202;-62
2022/04/20 03:46:18;;;;;;;0.93;0.90;;;;;;;;;;5063785;28;20206;-63
2022/04/20 03:48:46;;;;;;;1.30;1.13;;;;;;;;;;5065481;28;20193;-63
2022/04/20 03:51:13;;;;;;;1.07;1.00;;;;;;;;;;5055767;28;20753;-63
2022/04/20 03:53:40;;;;;;;1.00;0.90;;;;;;;;;;5066505;28;20240;-63
2022/04/20 03:56:07;;;;;;;0.90;0.90;;;;;;;;;;5069273;28;20206;-62
2022/04/20 03:58:35;;;;;;;0.90;0.90;;;;;;;;;;5063604;28;20596;-63
2022/04/20 04:01:02;;;;;;;0.80;0.80;;;;;;;;;;5073481;28;20302;-62
2022/04/20 04:03:29;;;;;;;0.77;0.73;;;;;;;;;;5063342;28;20216;-62
2022/04/20 04:05:57;;;;;;;1.57;0.80;;;;;;;;;;5065612;28;20586;-63
2022/04/20 04:08:24;;;;;;;0.80;0.80;;;;;;;;;;5065744;28;20671;-64
2022/04/20 04:10:51;;;;;;;1.30;0.90;;;;;;;;;;5060277;28;20197;-63
2022/04/20 04:13:19;;;;;;;1.10;1.00;;;;;;;;;;5045951;28;20793;-63
2022/04/20 04:15:46;;;;;;;0.93;0.83;;;;;;;;;;5068671;28;20248;-63
2022/04/20 04:18:13;;;;;;;0.80;0.80;;;;;;;;;;5063397;28;20600;-63
2022/04/20 04:21:05;;;;;;;1.23;1.13;;;;;;;;;;5069813;28;20182;-63
2022/04/20 04:23:42;;;;;;;1.10;1.00;;;;;;;;;;5063554;28;20702;-63
2022/04/20 04:26:13;;;;;;;0.80;0.80;;;;;;;;;;5062866;28;20289;-63
2022/04/20 04:28:44;;;;;;;1.10;0.83;;;;;;;;;;5064660;28;20202;-62
2022/04/20 04:31:16;;;;;;;1.20;1.10;;;;;;;;;;5071842;28;20192;-62
2022/04/20 04:33:47;;;;;;;1.10;1.00;;;;;;;;;;5064615;28;20305;-63
2022/04/20 04:36:18;;;;;;;0.80;0.80;;;;;;;;;;5062932;28;20225;-63
2022/04/20 04:38:48;;;;;;;1.00;0.90;;;;;;;;;;5059322;28;20301;-63
2022/04/20 04:41:16;;;;;;;1.13;0.97;;;;;;;;;;5057914;28;20561;-63
2022/04/20 04:43:43;;;;;;;1.07;0.97;;;;;;;;;;5068709;28;20190;-63
2022/04/20 04:48:55;;;;;;;1.53;1.10;;;;;;;;;;5066176;28;20198;-64
2022/04/20 04:51:24;;;;;;;1.70;1.17;;;;;;;;;;5063139;28;20206;-63
2022/04/20 04:53:59;;;;;;;5.13;1.80;;;;;;;;;;5059492;28;20193;-64
2022/04/20 04:56:28;;;;;;;4.87;1.50;;;;;;;;;;5068693;28;20205;-64
2022/04/20 04:58:59;;;;;;;4.90;2.10;;;;;;;;;;5067889;28;20203;-64
2022/04/20 05:01:28;;;;;;;3.73;1.83;;;;;;;;;;5050614;28;20316;-64
2022/04/20 05:04:01;;;;;;;4.63;2.23;;;;;;;;;;5054127;28;20198;-64
2022/04/20 05:06:34;;;;;;;7.23;2.37;;;;;;;;;;5073706;28;20275;-64
2022/04/20 05:09:01;;;;;;;7.27;2.63;;;;;;;;;;5065452;28;20240;-62
2022/04/20 05:11:39;;;;;;;8.00;2.67;;;;;;;;;;5069318;28;20206;-65
2022/04/20 05:14:13;;;;;;;8.90;3.00;;;;;;;;;;5068275;28;20228;-64
2022/04/20 05:16:43;;;;;;;7.37;2.60;;;;;;;;;;5049121;28;20305;-63
2022/04/20 05:19:11;;;;;;;8.17;3.10;;;;;;;;;;5048187;28;20650;-64
2022/04/20 05:21:43;;;;;;;8.83;3.00;;;;;;;;;;5068651;28;20264;-62
2022/04/20 05:24:14;;;;;;;9.50;3.10;;;;;;;;;;5048722;28;20235;-62
2022/04/20 05:26:44;;;;;;;10.23;3.57;;;;;;;;;;5066538;28;20877;-65
2022/04/20 05:29:13;;;;;;;8.40;3.47;;;;;;;;;;5055221;28;20201;-63
2022/04/20 05:31:40;;;;;;;12.07;3.03;;;;;;;;;;5068529;28;20264;-63
2022/04/20 05:34:08;;;;;;;8.13;2.97;;;;;;;;;;5067416;28;20197;-63
2022/04/20 05:42:07;;;;;;;7.43;3.17;;;;;;;;;;5064257;28;20209;-65
2022/04/20 05:44:34;;;;;;;9.10;2.67;;;;;;;;;;5064613;28;20260;-63
2022/04/20 05:47:01;;;;;;;5.07;2.97;;;;;;;;;;5067687;28;20194;-64
2022/04/20 05:49:28;;;;;;;9.67;3.33;;;;;;;;;;5062977;28;20187;-63
2022/04/20 05:51:55;;;;;;;8.20;3.40;;;;;;;;;;5066295;28;20206;-63
2022/04/20 05:54:23;;;;;;;8.50;3.23;;;;;;;;;;5065212;28;20202;-65
2022/04/20 05:56:50;;;;;;;6.93;3.23;;;;;;;;;;5066829;28;20202;-63
2022/04/20 05:59:17;;;;;;;5.77;2.77;;;;;;;;;;5061744;28;20210;-63
2022/04/20 06:01:47;;;;;;;4.33;2.80;;;;;;;;;;5067426;28;20229;-62
2022/04/20 06:04:19;;;;;;;4.07;2.50;;;;;;;;;;5056210;28;20189;-63
2022/04/20 06:06:52;;;;;;;4.07;2.47;;;;;;;;;;5065688;28;20201;-61
2022/04/20 06:09:25;;;;;;;4.73;2.93;;;;;;;;;;5063932;28;20230;-62
2022/04/20 06:11:55;;;;;;;4.47;2.87;;;;;;;;;;5068053;28;20233;-64
2022/04/20 06:14:25;;;;;;;7.77;3.17;;;;;;;;;;5067742;28;20292;-63
2022/04/20 06:16:54;;;;;;;3.80;2.60;;;;;;;;;;5067288;28;20298;-62
2022/04/20 06:19:25;;;;;;;4.87;2.50;;;;;;;;;;5063943;28;20200;-65
2022/04/20 06:21:55;;;;;;;4.20;2.67;;;;;;;;;;5073063;28;20252;-62
2022/04/20 06:24:27;;;;;;;3.90;2.53;;;;;;;;;;5063830;28;20212;-62
2022/04/20 06:26:59;;;;;;;7.00;2.33;;;;;;;;;;5066196;28;20238;-62
2022/04/20 06:29:30;;;;;;;6.20;3.87;;;;;;;;;;5034419;28;20671;-63
2022/04/20 06:32:06;;;;;;;4.20;2.83;;;;;;;;;;5064369;28;20541;-65
2022/04/20 06:34:38;;;;;;;3.80;2.57;;;;;;;;;;5066829;28;20212;-63
2022/04/20 06:37:07;;;;;;;6.17;2.90;;;;;;;;;;5039490;28;20197;-62
2022/04/20 06:39:36;;;;;;;6.10;3.50;;;;;;;;;;5065706;28;20258;-62
2022/04/20 06:42:07;;;;;;;6.67;3.40;;;;;;;;;;5060639;28;20212;-64
2022/04/20 06:44:54;;;;;;;3.77;3.17;;;;;;;;;;5046028;28;20563;-63
2022/04/20 06:47:23;;;;;;;8.27;3.43;;;;;;;;;;5061430;28;20197;-63
2022/04/20 06:49:55;;;;;;;6.87;3.47;;;;;;;;;;5063118;28;20220;-64
2022/04/20 07:00:58;;;;;;;5.70;3.23;;;;;;;;;;5062512;28;20205;-62
2022/04/20 07:03:31;;;;;;;10.23;3.83;;;;;;;;;;5061938;28;20670;-62
2022/04/20 07:06:02;;;;;;;10.70;3.83;;;;;;;;;;5066210;28;20205;-63
2022/04/20 07:08:34;;;;;;;6.37;3.43;;;;;;;;;;5042584;28;20235;-63
2022/04/20 07:11:04;;;;;;;6.20;3.13;;;;;;;;;;5029456;28;20652;-62
2022/04/20 07:13:37;;;;;;;4.87;3.03;;;;;;;;;;5060938;28;20194;-63
2022/04/20 07:16:10;;;;;;;4.23;3.23;;;;;;;;;;5061383;28;20201;-63
2022/04/20 07:18:40;;;;;;;7.03;3.00;;;;;;;;;;5045765;28;20655;-63
2022/04/20 07:21:10;;;;;;;6.77;3.53;;;;;;;;;;5062329;28;20186;-62
2022/04/20 07:23:39;;;;;;;4.07;2.77;;;;;;;;;;5063631;28;20233;-62
2022/04/20 07:26:07;;;;;;;6.10;3.10;;;;;;;;;;5065820;28;20254;-63
2022/04/20 07:28:39;;;;;;;4.13;3.30;;;;;;;;;;5062197;28;20768;-63
2022/04/20 07:31:11;;;;;;;6.40;3.10;;;;;;;;;;5064873;28;20224;-65
2022/04/20 07:33:38;;;;;;;6.93;3.50;;;;;;;;;;5066017;28;20753;-63
2022/04/20 07:36:13;;;;;;;7.47;3.10;;;;;;;;;;5064323;28;20210;-64
2022/04/20 07:38:45;;;;;;;5.83;3.10;;;;;;;;;;5065982;28;20193;-61
2022/04/20 07:41:12;;;;;;;7.67;3.47;;;;;;;;;;5062871;28;20205;-62
2022/04/20 07:43:42;;;;;;;11.30;4.23;;;;;;;;;;5069986;28;20214;-62
2022/04/20 07:46:18;;;;;;;9.83;4.43;;;;;;;;;;5072052;28;20193;-62
2022/04/20 07:48:48;;;;;;;13.80;4.23;;;;;;;;;;5050638;28;20209;-62
2022/04/20 07:51:17;;;;;;;10.93;3.77;;;;;;;;;;5046744;28;20270;-62
2022/04/20 07:53:52;;;;;;;12.50;4.23;;;;;;;;;;5060240;28;20283;-62
2022/04/20 07:56:23;;;;;;;10.33;4.00;;;;;;;;;;5057365;28;20220;-63
2022/04/20 07:58:51;;;;;;;6.27;3.63;;;;;;;;;;5063766;28;20218;-62
2022/04/20 08:01:28;;;;;;;9.10;3.90;;;;;;;;;;5054169;28;20217;-62
2022/04/20 08:04:02;;;;;;;7.80;3.70;;;;;;;;;;5064487;28;20320;-62
2022/04/20 08:06:31;;;;;;;4.33;3.10;;;;;;;;;;5064952;28;20201;-62
2022/04/20 08:09:02;;;;;;;6.90;3.73;;;;;;;;;;5063767;28;20298;-61
2022/04/20 08:11:32;;;;;;;3.90;3.00;;;;;;;;;;5061492;28;20225;-63
2022/04/20 08:14:13;;;;;;;4.13;3.23;;;;;;;;;;5075321;28;20316;-62
2022/04/20 08:16:47;;;;;;;4.17;2.80;;;;;;;;;;5065446;28;20216;-63
2022/04/20 08:19:17;;;;;;;5.23;3.30;;;;;;;;;;5066220;28;20735;-64
2022/04/20 08:21:49;;;;;;;6.23;3.20;;;;;;;;;;5068928;28;20209;-63
2022/04/20 08:24:24;;;;;;;4.83;3.10;;;;;;;;;;5066214;28;20208;-63
2022/04/20 08:26:55;;;;;;;4.23;3.20;;;;;;;;;;5070239;28;20198;-62
2022/04/20 08:29:27;;;;;;;5.97;3.37;;;;;;;;;;5071424;28;20675;-62
2022/04/20 08:31:58;;;;;;;4.07;3.33;;;;;;;;;;5068024;28;20190;-62
2022/04/20 08:34:31;;;;;;;5.10;3.20;;;;;;;;;;5068731;28;20194;-63
2022/04/20 08:37:26;;;;;;;3.77;3.07;;;;;;;;;;5063236;28;20206;-63
2022/04/20 08:39:55;;;;;;;3.23;2.93;;;;;;;;;;5059472;28;20197;-63
2022/04/20 08:42:26;;;;;;;5.37;2.80;;;;;;;;;;5068814;28;20205;-61
2022/04/20 08:45:02;;;;;;;4.17;3.00;;;;;;;;;;5050078;28;20217;-63
2022/04/20 08:47:34;;;;;;;5.13;2.80;;;;;;;;;;5064531;28;20819;-63
2022/04/20 08:50:02;;;;;;;3.37;2.90;;;;;;;;;;5036581;28;20197;-62
2022/04/20 08:52:37;;;;;;;4.40;2.77;;;;;;;;;;5045987;28;20198;-62
2022/04/20 08:55:08;;;;;;;3.20;2.90;;;;;;;;;;5060144;28;20649;-62
2022/04/20 08:57:36;;;;;;;3.40;2.80;;;;;;;;;;5069289;28;20197;-63
2022/04/20 09:00:05;;;;;;;3.33;2.60;;;;;;;;;;5065332;28;20210;-62
2022/04/20 09:02:32;;;;;;;3.30;2.53;;;;;;;;;;5067019;28;20658;-62
2022/04/20 09:04:59;;;;;;;3.20;2.90;;;;;;;;;;5068096;28;20254;-62
2022/04/20 09:07:27;;;;;;;4.23;3.40;;;;;;;;;;5066514;28;20182;-63
2022/04/20 09:09:54;;;;;;;7.63;3.63;;;;;;;;;;5074402;28;20241;-63
2022/04/20 09:12:26;;;;;;;3.20;2.90;;;;;;;;;;5064981;28;20260;-62
2022/04/20 09:14:56;;;;;;;3.07;2.73;;;;;;;;;;5066793;28;20209;-63
2022/04/20 09:17:26;;;;;;;3.87;2.90;;;;;;;;;;5063264;28;20251;-62
2022/04/20 09:19:56;;;;;;;3.80;2.97;;;;;;;;;;5067121;28;20198;-62
2022/04/20 09:22:24;;;;;;;3.60;3.10;;;;;;;;;;5067690;28;20184;-64
2022/04/20 09:25:11;;;;;;;4.00;3.13;;;;;;;;;;5072480;28;20651;-64
2022/04/20 09:27:39;;;;;;;3.83;3.23;;;;;;;;;;5040664;28;20185;-63
2022/04/20 09:30:16;;;;;;;3.37;3.00;;;;;;;;;;5062084;28;20190;-63
2022/04/20 09:32:44;;;;;;;3.07;2.77;;;;;;;;;;5062396;28;20194;-62
2022/04/20 09:35:13;;;;;;;3.53;2.80;;;;;;;;;;5063841;28;20263;-62
2022/04/20 09:37:40;;;;;;;2.93;2.40;;;;;;;;;;5065877;28;20255;-61
2022/04/20 09:40:13;;;;;;;4.93;2.90;;;;;;;;;;5072984;28;20205;-62
2022/04/20 09:42:58;;;;;;;4.20;2.50;;;;;;;;;;5063325;28;20221;-62
2022/04/20 09:45:27;;;;;;;3.37;2.77;;;;;;;;;;5066968;28;20764;-63
2022/04/20 09:50:46;;;;;;;3.40;2.77;;;;;;;;;;5060915;28;20208;-64
2022/04/20 09:53:14;;;;;;;5.07;2.50;;;;;;;;;;5061814;28;20202;-63
2022/04/20 09:55:41;;;;;;;5.23;2.90;;;;;;;;;;5067220;28;20205;-62
2022/04/20 09:58:10;;;;;;;3.00;2.60;;;;;;;;;;5046742;28;20206;-62
2022/04/20 10:00:38;;;;;;;3.10;2.67;;;;;;;;;;5054370;28;20221;-64
2022/04/20 10:03:05;;;;;;;2.50;2.30;;;;;;;;;;5062618;28;20205;-63
2022/04/20 10:05:32;;;;;;;2.37;2.10;;;;;;;;;;5066898;28;20218;-62
2022/04/20 10:08:00;;;;;;;3.50;2.13;;;;;;;;;;5056481;28;20209;-61
2022/04/20 10:10:32;;;;;;;2.23;1.77;;;;;;;;;;5064679;28;20282;-64
2022/04/20 10:13:01;;;;;;;3.43;2.17;;;;;;;;;;5063850;28;20225;-62
2022/04/20 10:18:17;;;;;;;2.60;2.27;;;;;;;;;;5066096;28;20577;-63
2022/04/20 10:20:52;;;;;;;2.27;2.07;;;;;;;;;;5067746;28;20236;-63
2022/04/20 10:23:40;;;;;;;2.30;2.10;;;;;;;;;;5065445;28;20283;-62
2022/04/20 10:26:13;;;;;;;2.97;2.00;;;;;;;;;;5059918;28;20194;-64
2022/04/20 10:29:10;;;;;;;3.10;2.07;;;;;;;;;;5058052;28;20632;-63
2022/04/20 10:32:02;;;;;;;2.53;1.73;;;;;;;;;;5064612;28;20225;-62
2022/04/20 10:34:34;;;;;;;2.60;2.03;;;;;;;;;;5055228;28;20197;-63
2022/04/20 10:37:07;;;;;;;2.27;1.97;;;;;;;;;;5065785;28;20202;-62
2022/04/20 10:39:39;;;;;;;2.33;1.90;;;;;;;;;;5064939;28;20193;-63
2022/04/20 10:42:12;;;;;;;2.63;1.60;;;;;;;;;;5066208;28;20209;-63
2022/04/20 10:44:59;;;;;;;1.77;1.63;;;;;;;;;;5067680;28;20214;-62
2022/04/20 10:47:28;;;;;;;3.47;1.97;;;;;;;;;;5058692;28;20267;-63
2022/04/20 10:50:19;;;;;;;1.73;1.63;;;;;;;;;;5066568;28;20193;-64
2022/04/20 10:52:48;;;;;;;2.93;1.60;;;;;;;;;;5059814;28;20198;-63
2022/04/20 10:55:15;;;;;;;3.33;1.70;;;;;;;;;;5063496;28;20213;-62
2022/04/20 10:57:43;;;;;;;3.03;1.90;;;;;;;;;;5068016;28;20208;-63
2022/04/20 11:00:19;;;;;;;2.23;1.83;;;;;;;;;;5063231;28;20270;-64
2022/04/20 11:03:01;;;;;;;3.63;1.50;;;;;;;;;;5065651;28;20239;-63
2022/04/20 11:05:28;;;;;;;2.50;1.67;;;;;;;;;;5066789;28;20266;-62
2022/04/20 11:08:14;;;;;;;3.40;1.50;;;;;;;;;;5055598;28;20209;-62
2022/04/20 11:19:13;;;;;;;2.50;1.60;;;;;;;;;;5058043;28;20197;-63
2022/04/20 11:21:57;;;;;;;2.70;1.73;;;;;;;;;;5066372;28;20198;-63
2022/04/20 11:24:27;;;;;;;1.60;1.50;;;;;;;;;;5064216;28;20233;-65
2022/04/20 11:27:00;;;;;;;1.43;1.30;;;;;;;;;;5066221;28;20198;-62
2022/04/20 11:29:34;;;;;;;2.30;1.57;;;;;;;;;;5065886;28;20189;-63
2022/04/20 11:32:15;;;;;;;2.70;1.70;;;;;;;;;;5066597;28;20224;-62
2022/04/20 11:34:46;;;;;;;2.70;1.70;;;;;;;;;;5049812;28;20205;-61
2022/04/20 11:37:17;;;;;;;2.17;1.60;;;;;;;;;;5061968;28;20561;-62
2022/04/20 11:39:48;;;;;;;2.10;1.63;;;;;;;;;;5068140;28;20194;-62
2022/04/20 11:42:20;;;;;;;4.53;2.10;;;;;;;;;;5066116;28;20290;-62
2022/04/20 11:44:51;;;;;;;2.17;1.97;;;;;;;;;;5066034;28;20275;-62
2022/04/20 11:47:22;;;;;;;4.20;2.30;;;;;;;;;;5062142;28;20189;-63
2022/04/20 11:50:00;;;;;;;4.93;2.30;;;;;;;;;;5070299;28;20206;-62
2022/04/20 11:52:33;;;;;;;3.97;2.20;;;;;;;;;;5070122;28;20267;-62
2022/04/20 11:55:17;;;;;;;2.87;2.20;;;;;;;;;;5067957;28;20225;-62
2022/04/20 11:57:52;;;;;;;3.03;1.97;;;;;;;;;;5071270;28;20190;-62
2022/04/20 12:00:25;;;;;;;4.73;1.70;;;;;;;;;;5068606;28;20217;-62
2022/04/20 12:02:55;;;;;;;3.83;2.07;;;;;;;;;;5069222;28;20219;-62
2022/04/20 12:05:27;;;;;;;2.03;1.70;;;;;;;;;;5061782;28;20557;-63
2022/04/20 12:08:00;;;;;;;2.27;2.03;;;;;;;;;;5064922;28;20205;-63
2022/04/20 12:10:33;;;;;;;1.93;1.70;;;;;;;;;;5051933;28;20623;-63
2022/04/20 12:13:05;;;;;;;2.67;1.90;;;;;;;;;;5037809;28;20718;-62
2022/04/20 12:15:33;;;;;;;2.77;2.10;;;;;;;;;;5042269;28;20201;-61
2022/04/20 12:18:07;;;;;;;1.73;1.63;;;;;;;;;;5048545;28;20287;-62
2022/04/20 12:20:36;;;;;;;3.57;2.27;;;;;;;;;;5048917;28;20214;-63
2022/04/20 12:23:08;;;;;;;3.30;2.30;;;;;;;;;;5042290;28;20210;-63
2022/04/20 12:25:37;;;;;;;2.60;2.17;;;;;;;;;;5047971;28;20194;-63
2022/04/20 12:28:35;;;;;;;4.63;2.93;;;;;;;;;;5047512;28;20217;-62
2022/04/20 12:31:01;;;;;;;3.20;2.47;;;;;;;;;;5051348;28;20210;-64
2022/04/20 12:33:31;;;;;;;3.03;2.43;;;;;;;;;;5050279;28;20229;-62
2022/04/20 12:36:08;;;;;;;2.83;2.37;;;;;;;;;;5050817;28;20214;-63
2022/04/20 12:38:44;;;;;;;3.63;2.40;;;;;;;;;;5048885;28;20233;-63
2022/04/20 12:41:32;;;;;;;2.90;2.23;;;;;;;;;;5046887;28;20228;-63
2022/04/20 12:44:02;;;;;;;3.20;2.40;;;;;;;;;;5048607;28;20214;-64
2022/04/20 12:46:34;;;;;;;5.33;3.10;;;;;;;;;;5031617;28;20209;-64
2022/04/20 12:49:03;;;;;;;3.07;2.30;;;;;;;;;;5048327;28;20867;-64
2022/04/20 12:51:33;;;;;;;3.17;2.40;;;;;;;;;;5054037;28;20270;-62
2022/04/20 12:54:00;;;;;;;4.33;2.53;;;;;;;;;;5048665;28;20243;-63
2022/04/20 13:02:05;;;;;;;2.60;2.30;;;;;;;;;;5033576;28;20260;-62
2022/04/20 13:04:33;;;;;;;3.80;2.40;;;;;;;;;;5044127;28;20622;-62
2022/04/20 13:07:00;;;;;;;3.53;2.20;;;;;;;;;;5047900;28;20867;-62
2022/04/20 13:09:27;;;;;;;2.50;2.30;;;;;;;;;;5049366;28;20233;-64
2022/04/20 13:11:54;;;;;;;3.73;2.30;;;;;;;;;;5064426;28;20240;-65
2022/04/20 13:14:21;;;;;;;7.47;2.60;;;;;;;;;;5066244;28;20202;-62
2022/04/20 13:16:49;;;;;;;3.00;2.40;;;;;;;;;;5044429;28;20750;-63
2022/04/20 13:19:16;;;;;;;2.30;1.93;;;;;;;;;;5061910;28;20198;-63
2022/04/20 13:21:44;;;;;;;1.80;1.60;;;;;;;;;;5058607;28;20201;-62
2022/04/20 13:24:11;;;;;;;2.20;2.00;;;;;;;;;;5064590;28;20222;-62
2022/04/20 13:29:25;;;;;;;3.87;2.30;;;;;;;;;;5058313;28;21113;-64
2022/04/20 13:31:52;;;;;;;5.07;2.57;;;;;;;;;;5064543;28;20492;-64
2022/04/20 13:34:20;;;;;;;4.13;2.60;;;;;;;;;;5046765;28;20555;-64
2022/04/20 13:36:47;;;;;;;3.63;2.43;;;;;;;;;;5066550;28;20225;-63
2022/04/20 13:39:14;;;;;;;4.87;2.50;;;;;;;;;;5064940;28;20201;-64
2022/04/20 13:41:41;;;;;;;2.90;2.40;;;;;;;;;;5072842;28;20201;-61
2022/04/20 13:44:08;;;;;;;2.23;2.00;;;;;;;;;;5050023;28;20371;-62
2022/04/20 13:46:35;;;;;;;1.93;1.80;;;;;;;;;;5071457;28;20198;-66
2022/04/20 13:49:03;;;;;;;2.63;2.00;;;;;;;;;;5066136;28;20808;-63
2022/04/20 13:51:30;;;;;;;5.43;1.80;;;;;;;;;;5068929;28;20243;-63
2022/04/20 13:53:57;;;;;;;2.50;1.90;;;;;;;;;;5066463;28;20197;-63
2022/04/20 13:56:24;;;;;;;2.20;2.00;;;;;;;;;;5068610;28;20198;-62
2022/04/20 13:58:51;;;;;;;3.40;1.87;;;;;;;;;;5066518;28;20204;-62
2022/04/20 14:01:20;;;;;;;2.37;1.93;;;;;;;;;;5064443;28;20245;-63
2022/04/20 14:03:48;;;;;;;3.43;2.00;;;;;;;;;;5068168;28;20799;-64
2022/04/20 14:06:16;;;;;;;4.33;2.30;;;;;;;;;;5062678;28;20265;-62
2022/04/20 14:08:43;;;;;;;4.23;2.30;;;;;;;;;;5063853;28;20740;-62
2022/04/20 14:11:10;;;;;;;2.37;1.90;;;;;;;;;;5061781;28;20251;-63
2022/04/20 14:13:39;;;;;;;2.07;1.83;;;;;;;;;;5066773;28;20586;-64
2022/04/20 14:16:06;;;;;;;3.70;2.37;;;;;;;;;;5067138;28;20205;-62
2022/04/20 14:18:34;;;;;;;2.23;1.90;;;;;;;;;;5066488;28;20215;-64
2022/04/20 14:21:02;;;;;;;3.27;1.83;;;;;;;;;;5060417;28;20194;-62
2022/04/20 14:23:30;;;;;;;3.83;2.30;;;;;;;;;;5033709;28;20687;-64
2022/04/20 14:34:31;;;;;;;2.70;2.50;;;;;;;;;;5036643;28;20259;-62
2022/04/20 14:37:01;;;;;;;3.10;2.10;;;;;;;;;;5047585;28;20201;-62
2022/04/20 14:39:36;;;;;;;3.10;2.30;;;;;;;;;;5065643;28;20214;-62
2022/04/20 14:42:08;;;;;;;2.20;2.00;;;;;;;;;;5063570;28;20724;-64
2022/04/20 14:44:44;;;;;;;2.60;2.23;;;;;;;;;;5056514;28;20206;-64
2022/04/20 14:47:17;;;;;;;2.60;2.23;;;;;;;;;;5059184;28;20189;-64
2022/04/20 14:49:48;;;;;;;3.60;2.03;;;;;;;;;;5065266;28;20193;-62
2022/04/20 14:52:23;;;;;;;2.60;2.40;;;;;;;;;;5066777;28;20186;-62
2022/04/20 14:54:55;;;;;;;2.37;2.17;;;;;;;;;;5072602;28;20190;-63
2022/04/20 14:57:45;;;;;;;5.07;2.83;;;;;;;;;;5059139;28;20645;-62
2022/04/20 15:00:15;;;;;;;4.37;3.33;;;;;;;;;;5062195;28;20225;-63
2022/04/20 15:02:50;;;;;;;3.87;3.47;;;;;;;;;;5071862;28;20220;-63
2022/04/20 15:05:23;;;;;;;3.37;3.07;;;;;;;;;;5064194;28;20208;-63
2022/04/20 15:07:55;;;;;;;3.60;3.30;;;;;;;;;;5066283;28;20535;-63
2022/04/20 15:10:25;;;;;;;3.47;3.17;;;;;;;;;;5065431;28;20229;-62
2022/04/20 15:12:57;;;;;;;2.53;2.33;;;;;;;;;;5064231;28;20209;-64
2022/04/20 15:15:26;;;;;;;3.67;2.50;;;;;;;;;;5045740;28;20292;-63
2022/04/20 15:17:59;;;;;;;3.60;2.87;;;;;;;;;;5065113;28;20202;-63
2022/04/20 15:20:28;;;;;;;3.13;2.83;;;;;;;;;;5064360;28;20977;-61
2022/04/20 15:23:00;;;;;;;2.40;2.00;;;;;;;;;;5060122;28;20200;-64
2022/04/20 15:25:33;;;;;;;3.20;2.90;;;;;;;;;;5063098;28;20263;-64
2022/04/20 15:28:05;;;;;;;2.90;2.67;;;;;;;;;;5061620;28;20194;-65
2022/04/20 15:30:36;;;;;;;7.30;2.90;;;;;;;;;;5065996;28;20231;-64
2022/04/20 15:33:07;;;;;;;11.13;3.03;;;;;;;;;;5063921;28;20190;-63
2022/04/20 15:35:39;;;;;;;7.73;2.60;;;;;;;;;;5062435;28;20205;-64
2022/04/20 15:38:09;;;;;;;9.83;2.87;;;;;;;;;;5064615;28;20197;-63
2022/04/20 15:40:40;;;;;;;5.70;2.40;;;;;;;;;;5065406;28;20194;-62
2022/04/20 15:43:09;;;;;;;3.27;2.53;;;;;;;;;;5059780;28;20867;-63
2022/04/20 15:45:37;;;;;;;5.00;2.37;;;;;;;;;;5064633;28;20217;-63
2022/04/20 15:48:05;;;;;;;3.00;2.30;;;;;;;;;;5062477;28;20206;-63
2022/04/20 15:50:32;;;;;;;2.33;2.10;;;;;;;;;;5063497;28;20206;-62